sensor_id;sensor_type;location;lat;lon;timestamp;temperature;humidity
65046;DHT22;54657;52.022;5.534;2023-06-22T00:00:57;21.00;70.70
65046;DHT22;54657;52.022;5.534;2023-06-22T00:03:24;21.00;70.80
65046;DHT22;54657;52.022;5.534;2023-06-22T00:05:50;21.00;70.80
65046;DHT22;54657;52.022;5.534;2023-06-22T00:08:16;21.00;70.80
65046;DHT22;54657;52.022;5.534;2023-06-22T00:10:42;21.00;70.80
65046;DHT22;54657;52.022;5.534;2023-06-22T00:13:09;20.90;70.80
65046;DHT22;54657;52.022;5.534;2023-06-22T00:15:35;20.80;71.20
65046;DHT22;54657;52.022;5.534;2023-06-22T00:18:00;20.80;71.20
65046;DHT22;54657;52.022;5.534;2023-06-22T00:20:27;20.80;71.20
65046;DHT22;54657;52.022;5.534;2023-06-22T00:22:57;20.80;71.20
65046;DHT22;54657;52.022;5.534;2023-06-22T00:25:23;20.70;71.70
65046;DHT22;54657;52.022;5.534;2023-06-22T00:27:49;20.60;71.90
65046;DHT22;54657;52.022;5.534;2023-06-22T00:30:16;20.60;71.90
65046;DHT22;54657;52.022;5.534;2023-06-22T00:32:43;20.60;72.00
65046;DHT22;54657;52.022;5.534;2023-06-22T00:35:08;20.50;72.10
65046;DHT22;54657;52.022;5.534;2023-06-22T00:37:35;20.50;72.10
65046;DHT22;54657;52.022;5.534;2023-06-22T00:40:02;20.40;72.40
65046;DHT22;54657;52.022;5.534;2023-06-22T00:42:28;20.40;72.40
65046;DHT22;54657;52.022;5.534;2023-06-22T00:44:54;20.40;72.50
65046;DHT22;54657;52.022;5.534;2023-06-22T00:47:19;20.40;72.30
65046;DHT22;54657;52.022;5.534;2023-06-22T00:49:47;20.40;72.30
65046;DHT22;54657;52.022;5.534;2023-06-22T00:52:14;20.40;72.40
65046;DHT22;54657;52.022;5.534;2023-06-22T00:54:47;20.40;72.40
65046;DHT22;54657;52.022;5.534;2023-06-22T00:57:14;20.30;72.50
65046;DHT22;54657;52.022;5.534;2023-06-22T00:59:44;20.30;72.50
65046;DHT22;54657;52.022;5.534;2023-06-22T01:02:10;20.30;72.20
65046;DHT22;54657;52.022;5.534;2023-06-22T01:04:37;20.30;72.30
65046;DHT22;54657;52.022;5.534;2023-06-22T01:07:11;20.20;72.20
65046;DHT22;54657;52.022;5.534;2023-06-22T01:10:01;20.10;73.00
65046;DHT22;54657;52.022;5.534;2023-06-22T01:12:34;20.00;74.00
65046;DHT22;54657;52.022;5.534;2023-06-22T01:15:13;19.90;73.60
65046;DHT22;54657;52.022;5.534;2023-06-22T01:17:41;19.90;74.40
65046;DHT22;54657;52.022;5.534;2023-06-22T01:20:09;19.80;73.70
65046;DHT22;54657;52.022;5.534;2023-06-22T01:25:50;19.90;74.70
65046;DHT22;54657;52.022;5.534;2023-06-22T01:28:29;19.80;75.70
65046;DHT22;54657;52.022;5.534;2023-06-22T01:30:56;19.80;74.10
65046;DHT22;54657;52.022;5.534;2023-06-22T01:33:33;19.70;73.90
65046;DHT22;54657;52.022;5.534;2023-06-22T01:36:00;19.70;74.00
65046;DHT22;54657;52.022;5.534;2023-06-22T01:38:29;19.70;73.90
65046;DHT22;54657;52.022;5.534;2023-06-22T01:40:59;19.70;74.10
65046;DHT22;54657;52.022;5.534;2023-06-22T01:43:26;19.70;73.90
65046;DHT22;54657;52.022;5.534;2023-06-22T01:45:56;19.80;73.70
65046;DHT22;54657;52.022;5.534;2023-06-22T01:48:22;19.80;73.60
65046;DHT22;54657;52.022;5.534;2023-06-22T01:50:48;19.70;73.70
65046;DHT22;54657;52.022;5.534;2023-06-22T01:53:14;19.70;73.70
65046;DHT22;54657;52.022;5.534;2023-06-22T01:55:39;19.60;73.80
65046;DHT22;54657;52.022;5.534;2023-06-22T01:58:05;19.50;74.00
65046;DHT22;54657;52.022;5.534;2023-06-22T02:00:33;19.50;74.20
65046;DHT22;54657;52.022;5.534;2023-06-22T02:03:05;19.50;74.30
65046;DHT22;54657;52.022;5.534;2023-06-22T02:05:48;19.50;74.10
65046;DHT22;54657;52.022;5.534;2023-06-22T02:08:24;19.50;74.80
65046;DHT22;54657;52.022;5.534;2023-06-22T02:10:51;19.40;74.70
65046;DHT22;54657;52.022;5.534;2023-06-22T02:13:18;19.30;74.30
65046;DHT22;54657;52.022;5.534;2023-06-22T02:15:44;19.30;74.40
65046;DHT22;54657;52.022;5.534;2023-06-22T02:18:10;19.30;74.40
65046;DHT22;54657;52.022;5.534;2023-06-22T02:20:37;19.20;74.80
65046;DHT22;54657;52.022;5.534;2023-06-22T02:23:03;19.10;74.90
65046;DHT22;54657;52.022;5.534;2023-06-22T02:25:28;19.10;74.90
65046;DHT22;54657;52.022;5.534;2023-06-22T02:27:54;19.20;74.90
65046;DHT22;54657;52.022;5.534;2023-06-22T02:30:19;19.20;74.70
65046;DHT22;54657;52.022;5.534;2023-06-22T02:32:45;19.20;74.80
65046;DHT22;54657;52.022;5.534;2023-06-22T02:35:11;19.10;74.80
65046;DHT22;54657;52.022;5.534;2023-06-22T02:37:37;19.10;74.80
65046;DHT22;54657;52.022;5.534;2023-06-22T02:40:10;19.10;74.80
65046;DHT22;54657;52.022;5.534;2023-06-22T02:42:37;19.10;75.10
65046;DHT22;54657;52.022;5.534;2023-06-22T02:45:03;19.00;75.30
65046;DHT22;54657;52.022;5.534;2023-06-22T02:47:29;18.90;75.50
65046;DHT22;54657;52.022;5.534;2023-06-22T02:49:54;18.90;75.50
65046;DHT22;54657;52.022;5.534;2023-06-22T02:52:20;18.90;75.50
65046;DHT22;54657;52.022;5.534;2023-06-22T02:54:46;18.80;75.60
65046;DHT22;54657;52.022;5.534;2023-06-22T02:57:11;18.70;75.80
65046;DHT22;54657;52.022;5.534;2023-06-22T02:59:40;18.70;76.00
65046;DHT22;54657;52.022;5.534;2023-06-22T03:02:07;18.70;75.80
65046;DHT22;54657;52.022;5.534;2023-06-22T03:04:33;18.80;75.70
65046;DHT22;54657;52.022;5.534;2023-06-22T03:06:59;18.80;75.80
65046;DHT22;54657;52.022;5.534;2023-06-22T03:09:26;18.80;75.90
65046;DHT22;54657;52.022;5.534;2023-06-22T03:11:53;18.80;75.80
65046;DHT22;54657;52.022;5.534;2023-06-22T03:14:19;18.80;75.60
65046;DHT22;54657;52.022;5.534;2023-06-22T03:16:45;18.70;75.80
65046;DHT22;54657;52.022;5.534;2023-06-22T03:19:10;18.70;75.90
65046;DHT22;54657;52.022;5.534;2023-06-22T03:21:37;18.80;76.00
65046;DHT22;54657;52.022;5.534;2023-06-22T03:24:04;18.80;75.90
65046;DHT22;54657;52.022;5.534;2023-06-22T03:26:30;18.80;75.70
65046;DHT22;54657;52.022;5.534;2023-06-22T03:28:56;18.70;75.90
65046;DHT22;54657;52.022;5.534;2023-06-22T03:31:22;18.60;76.10
65046;DHT22;54657;52.022;5.534;2023-06-22T03:33:51;18.60;76.30
65046;DHT22;54657;52.022;5.534;2023-06-22T03:36:19;18.70;76.20
65046;DHT22;54657;52.022;5.534;2023-06-22T03:38:49;18.70;76.40
65046;DHT22;54657;52.022;5.534;2023-06-22T03:41:15;18.70;76.70
65046;DHT22;54657;52.022;5.534;2023-06-22T03:43:40;18.80;76.20
65046;DHT22;54657;52.022;5.534;2023-06-22T03:46:06;18.80;76.10
65046;DHT22;54657;52.022;5.534;2023-06-22T03:48:32;18.80;76.20
65046;DHT22;54657;52.022;5.534;2023-06-22T03:50:59;18.80;76.10
65046;DHT22;54657;52.022;5.534;2023-06-22T03:53:25;18.70;76.20
65046;DHT22;54657;52.022;5.534;2023-06-22T03:55:52;18.60;76.20
65046;DHT22;54657;52.022;5.534;2023-06-22T03:58:18;18.70;76.20
65046;DHT22;54657;52.022;5.534;2023-06-22T04:00:49;18.70;75.90
65046;DHT22;54657;52.022;5.534;2023-06-22T04:03:15;18.80;76.20
65046;DHT22;54657;52.022;5.534;2023-06-22T04:05:41;18.70;75.90
65046;DHT22;54657;52.022;5.534;2023-06-22T04:08:07;18.70;75.80
65046;DHT22;54657;52.022;5.534;2023-06-22T04:10:33;18.70;75.90
65046;DHT22;54657;52.022;5.534;2023-06-22T04:13:00;18.60;76.20
65046;DHT22;54657;52.022;5.534;2023-06-22T04:15:25;18.70;76.20
65046;DHT22;54657;52.022;5.534;2023-06-22T04:17:51;18.70;76.00
65046;DHT22;54657;52.022;5.534;2023-06-22T04:20:16;18.70;76.00
65046;DHT22;54657;52.022;5.534;2023-06-22T04:22:42;18.70;76.00
65046;DHT22;54657;52.022;5.534;2023-06-22T04:25:08;18.70;76.00
65046;DHT22;54657;52.022;5.534;2023-06-22T04:27:34;18.80;76.00
65046;DHT22;54657;52.022;5.534;2023-06-22T04:30:06;18.80;75.80
65046;DHT22;54657;52.022;5.534;2023-06-22T04:32:33;18.90;75.60
65046;DHT22;54657;52.022;5.534;2023-06-22T04:35:01;19.00;75.60
65046;DHT22;54657;52.022;5.534;2023-06-22T04:37:27;19.10;75.60
65046;DHT22;54657;52.022;5.534;2023-06-22T04:39:53;19.20;75.50
65046;DHT22;54657;52.022;5.534;2023-06-22T04:42:18;19.40;75.30
65046;DHT22;54657;52.022;5.534;2023-06-22T04:44:44;19.50;75.00
65046;DHT22;54657;52.022;5.534;2023-06-22T04:47:09;19.60;75.10
65046;DHT22;54657;52.022;5.534;2023-06-22T04:49:36;19.70;75.10
65046;DHT22;54657;52.022;5.534;2023-06-22T04:52:05;19.80;74.90
65046;DHT22;54657;52.022;5.534;2023-06-22T04:54:32;19.90;75.00
65046;DHT22;54657;52.022;5.534;2023-06-22T04:57:05;19.90;75.00
65046;DHT22;54657;52.022;5.534;2023-06-22T04:59:35;20.00;74.80
65046;DHT22;54657;52.022;5.534;2023-06-22T05:02:02;20.10;74.70
65046;DHT22;54657;52.022;5.534;2023-06-22T05:04:29;20.10;74.90
65046;DHT22;54657;52.022;5.534;2023-06-22T05:06:59;20.20;75.00
65046;DHT22;54657;52.022;5.534;2023-06-22T05:09:25;20.20;75.10
65046;DHT22;54657;52.022;5.534;2023-06-22T05:11:51;20.20;75.30
65046;DHT22;54657;52.022;5.534;2023-06-22T05:14:17;20.30;75.20
65046;DHT22;54657;52.022;5.534;2023-06-22T05:16:44;20.30;75.30
65046;DHT22;54657;52.022;5.534;2023-06-22T05:19:10;20.40;75.40
65046;DHT22;54657;52.022;5.534;2023-06-22T05:21:36;20.50;75.50
65046;DHT22;54657;52.022;5.534;2023-06-22T05:24:02;20.60;75.60
65046;DHT22;54657;52.022;5.534;2023-06-22T05:26:33;20.60;75.80
65046;DHT22;54657;52.022;5.534;2023-06-22T05:29:00;20.50;77.40
65046;DHT22;54657;52.022;5.534;2023-06-22T05:31:26;20.60;77.00
65046;DHT22;54657;52.022;5.534;2023-06-22T05:33:53;20.60;77.30
65046;DHT22;54657;52.022;5.534;2023-06-22T05:36:19;20.60;77.50
65046;DHT22;54657;52.022;5.534;2023-06-22T05:38:46;20.60;77.50
65046;DHT22;54657;52.022;5.534;2023-06-22T05:41:12;20.70;77.30
65046;DHT22;54657;52.022;5.534;2023-06-22T05:43:38;20.60;77.70
65046;DHT22;54657;52.022;5.534;2023-06-22T05:46:04;20.70;78.50
65046;DHT22;54657;52.022;5.534;2023-06-22T05:48:30;20.80;78.10
65046;DHT22;54657;52.022;5.534;2023-06-22T05:50:55;20.70;78.20
65046;DHT22;54657;52.022;5.534;2023-06-22T05:53:21;20.70;78.20
65046;DHT22;54657;52.022;5.534;2023-06-22T05:55:47;20.70;78.90
65046;DHT22;54657;52.022;5.534;2023-06-22T05:58:13;20.80;78.60
65046;DHT22;54657;52.022;5.534;2023-06-22T06:00:39;20.80;78.50
65046;DHT22;54657;52.022;5.534;2023-06-22T06:03:06;20.90;78.60
65046;DHT22;54657;52.022;5.534;2023-06-22T06:05:33;20.90;79.30
65046;DHT22;54657;52.022;5.534;2023-06-22T06:08:03;21.00;78.80
65046;DHT22;54657;52.022;5.534;2023-06-22T06:10:30;21.10;79.10
65046;DHT22;54657;52.022;5.534;2023-06-22T06:12:56;21.10;78.40
65046;DHT22;54657;52.022;5.534;2023-06-22T06:15:22;21.10;78.40
65046;DHT22;54657;52.022;5.534;2023-06-22T06:17:52;21.10;78.40
65046;DHT22;54657;52.022;5.534;2023-06-22T06:20:22;21.20;79.00
65046;DHT22;54657;52.022;5.534;2023-06-22T06:22:49;21.30;78.80
65046;DHT22;54657;52.022;5.534;2023-06-22T06:25:15;21.50;78.60
65046;DHT22;54657;52.022;5.534;2023-06-22T06:27:46;21.60;78.90
65046;DHT22;54657;52.022;5.534;2023-06-22T06:30:13;21.60;78.00
65046;DHT22;54657;52.022;5.534;2023-06-22T06:32:39;21.70;78.00
65046;DHT22;54657;52.022;5.534;2023-06-22T06:35:08;21.90;77.80
65046;DHT22;54657;52.022;5.534;2023-06-22T06:37:37;21.90;77.90
65046;DHT22;54657;52.022;5.534;2023-06-22T06:40:04;21.90;77.90
65046;DHT22;54657;52.022;5.534;2023-06-22T06:42:46;22.00;77.60
65046;DHT22;54657;52.022;5.534;2023-06-22T06:45:18;22.10;77.50
65046;DHT22;54657;52.022;5.534;2023-06-22T06:47:44;22.20;77.50
65046;DHT22;54657;52.022;5.534;2023-06-22T06:50:11;22.30;77.30
65046;DHT22;54657;52.022;5.534;2023-06-22T06:52:36;22.40;77.30
65046;DHT22;54657;52.022;5.534;2023-06-22T06:55:03;22.30;77.30
65046;DHT22;54657;52.022;5.534;2023-06-22T06:57:34;22.30;77.50
65046;DHT22;54657;52.022;5.534;2023-06-22T07:00:00;22.40;77.40
65046;DHT22;54657;52.022;5.534;2023-06-22T07:02:26;22.30;77.40
65046;DHT22;54657;52.022;5.534;2023-06-22T07:05:09;22.40;77.40
65046;DHT22;54657;52.022;5.534;2023-06-22T07:07:35;22.40;77.60
65046;DHT22;54657;52.022;5.534;2023-06-22T07:10:30;22.50;78.40
65046;DHT22;54657;52.022;5.534;2023-06-22T07:12:57;22.60;77.20
65046;DHT22;54657;52.022;5.534;2023-06-22T07:15:35;22.70;76.90
65046;DHT22;54657;52.022;5.534;2023-06-22T07:18:00;22.90;77.50
65046;DHT22;54657;52.022;5.534;2023-06-22T07:20:26;23.00;76.50
65046;DHT22;54657;52.022;5.534;2023-06-22T07:23:09;23.10;76.20
65046;DHT22;54657;52.022;5.534;2023-06-22T07:25:35;23.20;75.90
65046;DHT22;54657;52.022;5.534;2023-06-22T07:28:05;23.30;75.90
65046;DHT22;54657;52.022;5.534;2023-06-22T07:30:32;23.40;75.60
65046;DHT22;54657;52.022;5.534;2023-06-22T07:33:08;23.50;75.20
65046;DHT22;54657;52.022;5.534;2023-06-22T07:35:36;23.60;75.10
65046;DHT22;54657;52.022;5.534;2023-06-22T07:38:02;23.70;74.60
65046;DHT22;54657;52.022;5.534;2023-06-22T07:40:29;23.80;74.60
65046;DHT22;54657;52.022;5.534;2023-06-22T07:42:54;23.80;73.90
65046;DHT22;54657;52.022;5.534;2023-06-22T07:45:22;23.90;73.80
65046;DHT22;54657;52.022;5.534;2023-06-22T07:47:47;24.00;73.80
65046;DHT22;54657;52.022;5.534;2023-06-22T07:50:21;24.10;73.40
65046;DHT22;54657;52.022;5.534;2023-06-22T07:52:47;24.10;73.00
65046;DHT22;54657;52.022;5.534;2023-06-22T07:55:13;24.20;72.60
65046;DHT22;54657;52.022;5.534;2023-06-22T07:57:46;24.10;72.50
65046;DHT22;54657;52.022;5.534;2023-06-22T08:00:12;24.10;72.10
65046;DHT22;54657;52.022;5.534;2023-06-22T08:02:42;24.20;72.20
65046;DHT22;54657;52.022;5.534;2023-06-22T08:05:09;24.30;72.20
65046;DHT22;54657;52.022;5.534;2023-06-22T08:07:35;24.40;72.00
65046;DHT22;54657;52.022;5.534;2023-06-22T08:10:03;24.50;71.70
65046;DHT22;54657;52.022;5.534;2023-06-22T08:12:31;24.50;71.20
65046;DHT22;54657;52.022;5.534;2023-06-22T08:14:57;24.60;71.30
65046;DHT22;54657;52.022;5.534;2023-06-22T08:17:24;24.60;70.60
65046;DHT22;54657;52.022;5.534;2023-06-22T08:19:49;24.70;70.30
65046;DHT22;54657;52.022;5.534;2023-06-22T08:22:16;24.70;70.40
65046;DHT22;54657;52.022;5.534;2023-06-22T08:24:42;24.80;70.30
65046;DHT22;54657;52.022;5.534;2023-06-22T08:27:08;24.70;70.20
65046;DHT22;54657;52.022;5.534;2023-06-22T08:29:47;24.60;69.80
65046;DHT22;54657;52.022;5.534;2023-06-22T08:32:12;24.70;69.90
65046;DHT22;54657;52.022;5.534;2023-06-22T08:34:38;24.60;69.80
65046;DHT22;54657;52.022;5.534;2023-06-22T08:37:10;24.70;69.80
65046;DHT22;54657;52.022;5.534;2023-06-22T08:39:36;24.60;69.50
65046;DHT22;54657;52.022;5.534;2023-06-22T08:42:01;24.60;69.40
65046;DHT22;54657;52.022;5.534;2023-06-22T08:44:27;24.60;69.60
65046;DHT22;54657;52.022;5.534;2023-06-22T08:47:01;24.50;69.50
65046;DHT22;54657;52.022;5.534;2023-06-22T08:49:28;24.50;69.10
65046;DHT22;54657;52.022;5.534;2023-06-22T08:51:54;24.50;69.80
65046;DHT22;54657;52.022;5.534;2023-06-22T08:54:22;24.50;69.80
65046;DHT22;54657;52.022;5.534;2023-06-22T08:56:47;24.50;69.50
65046;DHT22;54657;52.022;5.534;2023-06-22T08:59:13;24.60;69.00
65046;DHT22;54657;52.022;5.534;2023-06-22T09:01:41;24.60;68.80
65046;DHT22;54657;52.022;5.534;2023-06-22T09:04:11;24.70;68.70
65046;DHT22;54657;52.022;5.534;2023-06-22T09:06:39;24.70;68.40
65046;DHT22;54657;52.022;5.534;2023-06-22T09:09:10;24.80;67.90
65046;DHT22;54657;52.022;5.534;2023-06-22T09:11:38;24.80;67.60
65046;DHT22;54657;52.022;5.534;2023-06-22T09:14:04;24.90;67.20
65046;DHT22;54657;52.022;5.534;2023-06-22T09:16:32;24.90;67.20
65046;DHT22;54657;52.022;5.534;2023-06-22T09:18:58;24.90;67.20
65046;DHT22;54657;52.022;5.534;2023-06-22T09:21:24;24.90;67.20
65046;DHT22;54657;52.022;5.534;2023-06-22T09:23:49;24.90;66.50
65046;DHT22;54657;52.022;5.534;2023-06-22T09:26:18;24.90;66.60
65046;DHT22;54657;52.022;5.534;2023-06-22T09:28:44;25.00;66.50
65046;DHT22;54657;52.022;5.534;2023-06-22T09:31:09;25.00;66.50
65046;DHT22;54657;52.022;5.534;2023-06-22T09:33:36;25.00;66.40
65046;DHT22;54657;52.022;5.534;2023-06-22T09:36:01;25.10;66.60
65046;DHT22;54657;52.022;5.534;2023-06-22T09:38:27;25.10;66.30
65046;DHT22;54657;52.022;5.534;2023-06-22T09:40:53;25.10;66.30
65046;DHT22;54657;52.022;5.534;2023-06-22T09:43:18;25.10;66.20
65046;DHT22;54657;52.022;5.534;2023-06-22T09:45:44;25.10;66.30
65046;DHT22;54657;52.022;5.534;2023-06-22T09:48:09;25.00;65.80
65046;DHT22;54657;52.022;5.534;2023-06-22T09:50:35;25.00;65.50
65046;DHT22;54657;52.022;5.534;2023-06-22T09:53:02;25.00;65.90
65046;DHT22;54657;52.022;5.534;2023-06-22T09:55:28;25.00;66.40
65046;DHT22;54657;52.022;5.534;2023-06-22T09:57:53;25.00;66.10
65046;DHT22;54657;52.022;5.534;2023-06-22T10:00:21;25.00;65.80
65046;DHT22;54657;52.022;5.534;2023-06-22T10:02:47;25.00;66.10
65046;DHT22;54657;52.022;5.534;2023-06-22T10:05:12;25.00;65.80
65046;DHT22;54657;52.022;5.534;2023-06-22T10:07:38;25.10;65.90
65046;DHT22;54657;52.022;5.534;2023-06-22T10:10:08;25.00;66.00
65046;DHT22;54657;52.022;5.534;2023-06-22T10:12:34;25.10;66.20
65046;DHT22;54657;52.022;5.534;2023-06-22T10:14:59;25.10;65.90
65046;DHT22;54657;52.022;5.534;2023-06-22T10:17:25;25.00;65.80
65046;DHT22;54657;52.022;5.534;2023-06-22T10:19:50;25.00;65.80
65046;DHT22;54657;52.022;5.534;2023-06-22T10:22:16;25.00;65.90
65046;DHT22;54657;52.022;5.534;2023-06-22T10:24:41;24.90;65.80
65046;DHT22;54657;52.022;5.534;2023-06-22T10:27:11;25.00;66.00
65046;DHT22;54657;52.022;5.534;2023-06-22T10:29:37;25.00;66.10
65046;DHT22;54657;52.022;5.534;2023-06-22T10:32:03;25.00;66.00
65046;DHT22;54657;52.022;5.534;2023-06-22T10:34:28;25.00;65.90
65046;DHT22;54657;52.022;5.534;2023-06-22T10:36:54;25.00;65.40
65046;DHT22;54657;52.022;5.534;2023-06-22T10:39:20;25.00;65.50
65046;DHT22;54657;52.022;5.534;2023-06-22T10:41:45;25.10;65.40
65046;DHT22;54657;52.022;5.534;2023-06-22T10:44:11;25.10;65.40
65046;DHT22;54657;52.022;5.534;2023-06-22T10:46:37;25.10;65.30
65046;DHT22;54657;52.022;5.534;2023-06-22T10:49:03;25.10;65.30
65046;DHT22;54657;52.022;5.534;2023-06-22T10:51:28;25.20;65.20
65046;DHT22;54657;52.022;5.534;2023-06-22T10:53:54;25.20;64.80
65046;DHT22;54657;52.022;5.534;2023-06-22T10:56:20;25.20;64.80
65046;DHT22;54657;52.022;5.534;2023-06-22T10:58:45;25.30;64.00
65046;DHT22;54657;52.022;5.534;2023-06-22T11:01:11;25.30;64.00
65046;DHT22;54657;52.022;5.534;2023-06-22T11:03:37;25.20;63.50
65046;DHT22;54657;52.022;5.534;2023-06-22T11:06:02;25.20;63.30
65046;DHT22;54657;52.022;5.534;2023-06-22T11:08:28;25.20;63.70
65046;DHT22;54657;52.022;5.534;2023-06-22T11:10:53;25.30;63.90
65046;DHT22;54657;52.022;5.534;2023-06-22T11:13:19;25.30;64.00
65046;DHT22;54657;52.022;5.534;2023-06-22T11:15:45;25.30;64.70
65046;DHT22;54657;52.022;5.534;2023-06-22T11:18:10;25.30;64.20
65046;DHT22;54657;52.022;5.534;2023-06-22T11:20:36;25.30;64.00
65046;DHT22;54657;52.022;5.534;2023-06-22T11:23:04;25.30;63.80
65046;DHT22;54657;52.022;5.534;2023-06-22T11:25:30;25.20;63.40
65046;DHT22;54657;52.022;5.534;2023-06-22T11:27:56;25.20;63.50
65046;DHT22;54657;52.022;5.534;2023-06-22T11:30:22;25.20;63.60
65046;DHT22;54657;52.022;5.534;2023-06-22T11:32:48;25.20;64.00
65046;DHT22;54657;52.022;5.534;2023-06-22T11:35:14;25.20;63.80
65046;DHT22;54657;52.022;5.534;2023-06-22T11:37:39;25.30;63.90
65046;DHT22;54657;52.022;5.534;2023-06-22T11:40:05;25.20;63.70
65046;DHT22;54657;52.022;5.534;2023-06-22T11:42:34;25.20;63.80
65046;DHT22;54657;52.022;5.534;2023-06-22T11:45:00;25.20;64.40
65046;DHT22;54657;52.022;5.534;2023-06-22T11:47:25;25.20;64.80
65046;DHT22;54657;52.022;5.534;2023-06-22T11:49:51;25.10;65.10
65046;DHT22;54657;52.022;5.534;2023-06-22T11:52:17;25.10;65.20
65046;DHT22;54657;52.022;5.534;2023-06-22T11:54:43;25.00;65.50
65046;DHT22;54657;52.022;5.534;2023-06-22T11:57:09;25.00;65.90
65046;DHT22;54657;52.022;5.534;2023-06-22T11:59:34;24.90;65.80
65046;DHT22;54657;52.022;5.534;2023-06-22T12:02:00;24.90;66.60
65046;DHT22;54657;52.022;5.534;2023-06-22T12:04:25;24.80;66.20
65046;DHT22;54657;52.022;5.534;2023-06-22T12:06:51;24.70;66.10
65046;DHT22;54657;52.022;5.534;2023-06-22T12:09:16;24.70;66.40
65046;DHT22;54657;52.022;5.534;2023-06-22T12:11:42;24.70;66.50
65046;DHT22;54657;52.022;5.534;2023-06-22T12:14:07;24.60;66.30
65046;DHT22;54657;52.022;5.534;2023-06-22T12:16:35;24.60;66.60
65046;DHT22;54657;52.022;5.534;2023-06-22T12:19:01;24.60;66.70
65046;DHT22;54657;52.022;5.534;2023-06-22T12:21:26;24.60;66.60
65046;DHT22;54657;52.022;5.534;2023-06-22T12:24:01;24.60;66.80
65046;DHT22;54657;52.022;5.534;2023-06-22T12:26:29;24.50;67.10
65046;DHT22;54657;52.022;5.534;2023-06-22T12:29:00;24.40;67.10
65046;DHT22;54657;52.022;5.534;2023-06-22T12:31:43;24.50;67.50
65046;DHT22;54657;52.022;5.534;2023-06-22T12:34:34;24.50;67.70
65046;DHT22;54657;52.022;5.534;2023-06-22T12:44:48;24.40;68.20
65046;DHT22;54657;52.022;5.534;2023-06-22T12:50:58;24.40;68.60
65046;DHT22;54657;52.022;5.534;2023-06-22T12:56:50;24.20;69.30
65046;DHT22;54657;52.022;5.534;2023-06-22T12:59:16;24.20;69.50
65046;DHT22;54657;52.022;5.534;2023-06-22T13:01:43;24.20;69.80
65046;DHT22;54657;52.022;5.534;2023-06-22T13:04:09;24.30;70.10
65046;DHT22;54657;52.022;5.534;2023-06-22T13:06:36;24.30;70.70
65046;DHT22;54657;52.022;5.534;2023-06-22T13:09:02;24.30;71.00
65046;DHT22;54657;52.022;5.534;2023-06-22T13:11:30;24.10;71.40
65046;DHT22;54657;52.022;5.534;2023-06-22T13:13:56;24.00;72.50
65046;DHT22;54657;52.022;5.534;2023-06-22T13:16:21;24.00;72.40
65046;DHT22;54657;52.022;5.534;2023-06-22T13:18:47;24.00;72.70
65046;DHT22;54657;52.022;5.534;2023-06-22T13:21:13;24.00;73.10
65046;DHT22;54657;52.022;5.534;2023-06-22T13:23:39;23.90;73.20
65046;DHT22;54657;52.022;5.534;2023-06-22T13:26:05;23.90;73.80
65046;DHT22;54657;52.022;5.534;2023-06-22T13:28:31;23.90;74.10
65046;DHT22;54657;52.022;5.534;2023-06-22T13:30:56;24.00;74.40
65046;DHT22;54657;52.022;5.534;2023-06-22T13:33:22;24.00;74.90
65046;DHT22;54657;52.022;5.534;2023-06-22T13:35:47;24.00;75.40
65046;DHT22;54657;52.022;5.534;2023-06-22T13:38:13;24.10;75.90
65046;DHT22;54657;52.022;5.534;2023-06-22T13:40:39;24.10;75.80
65046;DHT22;54657;52.022;5.534;2023-06-22T13:43:04;24.20;76.00
65046;DHT22;54657;52.022;5.534;2023-06-22T13:45:31;24.20;75.70
65046;DHT22;54657;52.022;5.534;2023-06-22T13:47:57;24.20;76.20
65046;DHT22;54657;52.022;5.534;2023-06-22T13:50:22;24.30;76.30
65046;DHT22;54657;52.022;5.534;2023-06-22T13:52:49;24.20;76.50
65046;DHT22;54657;52.022;5.534;2023-06-22T13:55:14;24.10;77.20
65046;DHT22;54657;52.022;5.534;2023-06-22T13:57:41;24.10;77.60
65046;DHT22;54657;52.022;5.534;2023-06-22T14:00:08;24.10;78.60
65046;DHT22;54657;52.022;5.534;2023-06-22T14:02:34;24.10;78.40
65046;DHT22;54657;52.022;5.534;2023-06-22T14:05:00;24.10;78.20
65046;DHT22;54657;52.022;5.534;2023-06-22T14:07:25;24.10;78.20
65046;DHT22;54657;52.022;5.534;2023-06-22T14:09:51;24.00;78.30
65046;DHT22;54657;52.022;5.534;2023-06-22T14:12:16;24.00;78.90
65046;DHT22;54657;52.022;5.534;2023-06-22T14:14:45;24.00;78.60
65046;DHT22;54657;52.022;5.534;2023-06-22T14:17:11;24.00;78.90
65046;DHT22;54657;52.022;5.534;2023-06-22T14:19:36;24.00;79.50
65046;DHT22;54657;52.022;5.534;2023-06-22T14:22:02;24.00;79.40
65046;DHT22;54657;52.022;5.534;2023-06-22T14:24:28;23.90;79.90
65046;DHT22;54657;52.022;5.534;2023-06-22T14:26:55;23.80;80.10
65046;DHT22;54657;52.022;5.534;2023-06-22T14:29:21;23.80;80.50
65046;DHT22;54657;52.022;5.534;2023-06-22T14:31:48;23.70;81.00
65046;DHT22;54657;52.022;5.534;2023-06-22T14:34:14;23.70;80.90
65046;DHT22;54657;52.022;5.534;2023-06-22T14:36:40;23.70;80.50
65046;DHT22;54657;52.022;5.534;2023-06-22T14:39:06;23.60;81.10
65046;DHT22;54657;52.022;5.534;2023-06-22T14:41:32;23.70;81.40
65046;DHT22;54657;52.022;5.534;2023-06-22T14:43:57;23.60;81.00
65046;DHT22;54657;52.022;5.534;2023-06-22T14:46:23;23.50;81.30
65046;DHT22;54657;52.022;5.534;2023-06-22T14:48:49;23.50;81.60
65046;DHT22;54657;52.022;5.534;2023-06-22T14:51:15;23.50;82.20
65046;DHT22;54657;52.022;5.534;2023-06-22T14:53:42;23.60;82.10
65046;DHT22;54657;52.022;5.534;2023-06-22T14:56:08;23.50;82.20
65046;DHT22;54657;52.022;5.534;2023-06-22T14:58:34;23.60;82.70
65046;DHT22;54657;52.022;5.534;2023-06-22T15:01:02;23.60;82.20
65046;DHT22;54657;52.022;5.534;2023-06-22T15:03:27;23.60;82.70
65046;DHT22;54657;52.022;5.534;2023-06-22T15:05:56;23.50;82.30
65046;DHT22;54657;52.022;5.534;2023-06-22T15:08:22;23.50;82.50
65046;DHT22;54657;52.022;5.534;2023-06-22T15:10:47;23.50;82.50
65046;DHT22;54657;52.022;5.534;2023-06-22T15:13:13;23.40;83.10
65046;DHT22;54657;52.022;5.534;2023-06-22T15:15:39;23.40;83.10
65046;DHT22;54657;52.022;5.534;2023-06-22T15:18:04;23.40;83.50
65046;DHT22;54657;52.022;5.534;2023-06-22T15:20:30;23.40;83.60
65046;DHT22;54657;52.022;5.534;2023-06-22T15:22:57;23.40;83.80
65046;DHT22;54657;52.022;5.534;2023-06-22T15:27:58;23.20;84.30
65046;DHT22;54657;52.022;5.534;2023-06-22T15:30:23;23.20;84.70
65046;DHT22;54657;52.022;5.534;2023-06-22T15:32:49;23.10;84.80
65046;DHT22;54657;52.022;5.534;2023-06-22T15:35:15;23.00;85.20
65046;DHT22;54657;52.022;5.534;2023-06-22T15:37:44;22.80;85.80
65046;DHT22;54657;52.022;5.534;2023-06-22T15:40:10;22.70;86.90
65046;DHT22;54657;52.022;5.534;2023-06-22T15:42:36;22.50;86.70
65046;DHT22;54657;52.022;5.534;2023-06-22T15:45:02;22.30;86.70
65046;DHT22;54657;52.022;5.534;2023-06-22T15:47:27;22.10;87.00
65046;DHT22;54657;52.022;5.534;2023-06-22T15:49:53;21.90;87.10